createdAt,value
2023-01-31T00:01:39.074Z,295.90
2023-01-31T00:06:46.229Z,297.45
2023-01-31T00:11:53.436Z,297.40
2023-01-31T00:17:00.638Z,297.05
2023-01-31T00:22:07.782Z,297.55
2023-01-31T00:27:15.004Z,298.18
2023-01-31T00:32:22.283Z,297.82
2023-01-31T00:37:29.476Z,297.49
2023-01-31T00:42:36.918Z,297.77
2023-01-31T00:47:44.083Z,297.78
2023-01-31T00:52:51.317Z,297.40
2023-01-31T00:57:58.601Z,296.88
2023-01-31T01:03:05.917Z,297.68
2023-01-31T01:08:13.087Z,297.71
2023-01-31T01:13:20.336Z,297.87
2023-01-31T01:18:27.537Z,298.16
2023-01-31T01:23:34.724Z,298.14
2023-01-31T01:28:41.983Z,299.11
2023-01-31T01:33:49.242Z,298.57
2023-01-31T01:38:56.527Z,297.91
2023-01-31T01:44:03.752Z,297.26
2023-01-31T01:49:11.028Z,297.28
2023-01-31T01:54:18.250Z,297.43
2023-01-31T01:59:25.511Z,297.29
2023-01-31T02:04:32.737Z,297.34
2023-01-31T02:09:39.882Z,297.44
2023-01-31T02:14:47.080Z,297.72
2023-01-31T02:19:54.444Z,297.46
2023-01-31T02:25:01.631Z,298.07
2023-01-31T02:30:08.908Z,297.46
2023-01-31T02:35:16.117Z,298.44
2023-01-31T02:40:23.262Z,298.59
2023-01-31T02:45:30.459Z,298.47
2023-01-31T02:50:37.681Z,297.98
2023-01-31T02:55:44.932Z,297.39
2023-01-31T03:00:52.229Z,297.41
2023-01-31T03:05:59.431Z,296.74
2023-01-31T03:11:06.586Z,295.91
2023-01-31T03:16:13.986Z,295.53
2023-01-31T03:21:21.305Z,295.34
2023-01-31T03:26:28.580Z,295.10
2023-01-31T03:31:35.992Z,295.36
2023-01-31T03:36:42.908Z,295.27
2023-01-31T03:41:50.128Z,294.90
2023-01-31T03:46:57.431Z,294.03
2023-01-31T03:52:04.597Z,295.01
2023-01-31T03:57:11.747Z,295.07
2023-01-31T04:02:18.942Z,294.36
2023-01-31T04:07:26.185Z,293.84
2023-01-31T04:12:33.389Z,293.32
2023-01-31T04:17:40.631Z,293.35
2023-01-31T04:22:47.992Z,292.43
2023-01-31T04:27:55.098Z,292.04
2023-01-31T04:33:02.342Z,292.59
2023-01-31T04:38:10.041Z,292.40
2023-01-31T04:43:16.758Z,291.87
2023-01-31T04:48:24.140Z,292.05
2023-01-31T04:53:31.790Z,292.01
2023-01-31T04:58:38.646Z,291.32
2023-01-31T05:03:45.886Z,290.67
2023-01-31T05:08:53.085Z,289.91
2023-01-31T05:14:00.255Z,289.99
2023-01-31T05:19:07.508Z,289.78
2023-01-31T05:24:14.758Z,288.57
2023-01-31T05:29:21.929Z,288.02
2023-01-31T05:34:29.071Z,287.52
2023-01-31T05:39:36.279Z,287.47
2023-01-31T05:44:43.449Z,286.74
2023-01-31T05:49:50.722Z,286.16
2023-01-31T05:54:57.956Z,286.05
2023-01-31T06:00:05.102Z,286.91
2023-01-31T06:05:12.314Z,286.27
2023-01-31T06:10:21.059Z,285.64
2023-01-31T06:15:26.862Z,286.06
2023-01-31T06:20:34.044Z,286.57
2023-01-31T06:25:41.247Z,285.98
2023-01-31T06:30:48.533Z,285.48
2023-01-31T06:35:55.956Z,285.09
2023-01-31T06:41:02.853Z,285.51
2023-01-31T06:46:10.188Z,285.86
2023-01-31T06:51:17.245Z,285.50
2023-01-31T06:56:24.448Z,286.20
2023-01-31T07:01:31.678Z,284.94
2023-01-31T07:06:38.807Z,283.86
2023-01-31T07:11:46.016Z,283.15
2023-01-31T07:16:53.168Z,283.05
2023-01-31T07:22:00.366Z,283.50
2023-01-31T07:27:07.563Z,283.32
2023-01-31T07:32:14.745Z,283.38
2023-01-31T07:37:21.924Z,283.51
2023-01-31T07:42:29.875Z,283.20
2023-01-31T07:47:36.381Z,283.24
2023-01-31T07:52:43.574Z,283.31
2023-01-31T07:57:50.978Z,283.68
2023-01-31T08:02:58.159Z,284.16
2023-01-31T08:08:05.406Z,284.31
2023-01-31T08:13:12.653Z,284.39
2023-01-31T08:18:20.446Z,284.00
2023-01-31T08:23:27.572Z,283.87
2023-01-31T08:28:34.817Z,284.30
2023-01-31T08:33:41.946Z,284.42
2023-01-31T08:38:49.543Z,284.46
2023-01-31T08:43:58.243Z,284.49
2023-01-31T08:49:03.771Z,284.00
2023-01-31T08:54:10.991Z,284.18
2023-01-31T08:59:18.201Z,284.47
2023-01-31T09:04:26.676Z,285.00
2023-01-31T09:09:34.082Z,285.21
2023-01-31T09:14:41.417Z,284.58
2023-01-31T09:19:48.523Z,284.77
2023-01-31T09:24:55.710Z,285.13
2023-01-31T09:30:03.046Z,285.26
2023-01-31T09:35:10.899Z,285.66
2023-01-31T09:40:17.429Z,285.93
2023-01-31T09:45:24.663Z,285.56
2023-01-31T09:50:32.060Z,285.72
2023-01-31T09:55:39.018Z,286.34
2023-01-31T10:00:46.417Z,286.42
2023-01-31T10:05:53.480Z,287.42
2023-01-31T10:11:00.738Z,286.54
2023-01-31T10:16:07.917Z,287.60
2023-01-31T10:21:15.053Z,288.66
2023-01-31T10:26:22.302Z,289.71
2023-01-31T10:31:29.477Z,290.27
2023-01-31T10:36:36.583Z,290.60
2023-01-31T10:41:43.893Z,291.43
2023-01-31T10:46:51.099Z,291.62
2023-01-31T10:51:58.259Z,291.94
2023-01-31T10:57:05.461Z,292.27
2023-01-31T11:02:12.786Z,293.23
2023-01-31T11:07:19.806Z,294.57
2023-01-31T11:12:27.025Z,294.96
2023-01-31T11:17:34.296Z,294.48
2023-01-31T11:22:41.513Z,295.68
2023-01-31T11:27:48.755Z,295.64
2023-01-31T11:32:55.955Z,295.83
2023-01-31T11:38:03.117Z,296.31
2023-01-31T11:43:10.314Z,296.16
2023-01-31T11:48:17.546Z,297.58
2023-01-31T11:53:24.763Z,298.64
2023-01-31T11:58:31.950Z,298.07
2023-01-31T12:03:51.828Z,298.21
2023-01-31T12:08:46.339Z,299.43
2023-01-31T12:13:53.572Z,300.62
2023-01-31T12:19:00.819Z,301.39
2023-01-31T12:24:07.923Z,302.78
2023-01-31T12:29:15.259Z,303.38
2023-01-31T12:34:22.575Z,304.06
2023-01-31T12:39:29.727Z,303.95
2023-01-31T12:44:37.417Z,303.64
2023-01-31T12:49:44.652Z,302.16
2023-01-31T12:54:52.010Z,303.00
2023-01-31T12:59:59.173Z,302.92
2023-01-31T13:05:06.395Z,301.69
2023-01-31T13:10:13.544Z,301.46
2023-01-31T13:15:21.036Z,301.99
2023-01-31T13:20:27.941Z,302.59
2023-01-31T13:25:35.238Z,303.33
2023-01-31T13:30:42.448Z,303.01
2023-01-31T13:35:49.736Z,302.90
2023-01-31T13:40:57.030Z,302.46
2023-01-31T13:46:04.261Z,302.64
2023-01-31T13:51:11.778Z,303.17
2023-01-31T13:56:19.047Z,302.35
2023-01-31T14:01:26.272Z,302.73
2023-01-31T14:06:33.454Z,303.74
2023-01-31T14:11:40.741Z,303.47
2023-01-31T14:16:48.204Z,302.20
2023-01-31T14:21:55.144Z,301.89
2023-01-31T14:27:02.319Z,301.93
2023-01-31T14:32:09.528Z,301.88
2023-01-31T14:37:16.777Z,301.36
2023-01-31T14:42:23.974Z,300.19
2023-01-31T14:47:31.201Z,300.31
2023-01-31T14:52:38.496Z,300.86
2023-01-31T14:57:45.649Z,302.09
2023-01-31T15:02:53.834Z,303.02
2023-01-31T15:08:00.993Z,302.85
2023-01-31T15:13:08.265Z,303.12
2023-01-31T15:18:15.675Z,303.04
2023-01-31T15:23:22.920Z,303.75
2023-01-31T15:28:30.140Z,305.45
2023-01-31T15:33:37.318Z,306.93
2023-01-31T15:38:44.513Z,306.39
2023-01-31T15:43:51.627Z,306.67
2023-01-31T15:48:58.777Z,307.95
2023-01-31T15:54:06.292Z,307.36
2023-01-31T15:59:13.153Z,305.82
2023-01-31T16:04:20.340Z,305.82
2023-01-31T16:09:27.699Z,304.68
2023-01-31T16:14:34.901Z,302.67
2023-01-31T16:19:42.087Z,302.90
2023-01-31T16:24:49.287Z,301.79
2023-01-31T16:29:58.933Z,301.66
2023-01-31T16:35:04.021Z,302.03
2023-01-31T16:40:11.319Z,302.64
2023-01-31T16:45:19.306Z,302.33
2023-01-31T16:50:41.821Z,301.47
2023-01-31T16:55:35.566Z,302.89
2023-01-31T17:00:42.811Z,301.21
2023-01-31T17:05:50.413Z,300.52
2023-01-31T17:10:58.124Z,304.40
2023-01-31T17:16:05.806Z,302.66
2023-01-31T17:21:15.038Z,303.22
2023-01-31T17:26:21.466Z,302.35
2023-01-31T17:31:28.993Z,301.07
2023-01-31T17:36:36.579Z,298.62
2023-01-31T17:41:44.722Z,298.99
2023-01-31T17:46:52.151Z,297.93
2023-01-31T17:51:59.780Z,296.84
2023-01-31T17:57:07.486Z,298.74
2023-01-31T18:02:15.157Z,297.11
2023-01-31T18:07:22.771Z,295.19
2023-01-31T18:12:30.113Z,294.33
2023-01-31T18:17:37.592Z,294.84
2023-01-31T18:22:45.312Z,294.67
2023-01-31T18:27:52.950Z,293.80
2023-01-31T18:33:00.556Z,295.01
2023-01-31T18:38:08.251Z,295.10
2023-01-31T18:43:15.902Z,295.35
2023-01-31T18:48:23.484Z,293.90
2023-01-31T18:53:31.148Z,293.45
2023-01-31T18:58:38.568Z,295.31
2023-01-31T19:03:45.944Z,296.96
2023-01-31T19:08:53.529Z,295.91
2023-01-31T19:14:00.864Z,294.78
2023-01-31T19:19:08.245Z,295.88
2023-01-31T19:24:15.993Z,296.46
2023-01-31T19:29:23.623Z,296.19
2023-01-31T19:34:30.980Z,296.63
2023-01-31T19:39:38.225Z,295.40
2023-01-31T19:44:45.758Z,292.99
2023-01-31T19:49:53.432Z,291.15
2023-01-31T19:55:01.145Z,291.73
2023-01-31T20:00:08.514Z,292.91
2023-01-31T20:05:15.958Z,291.99
2023-01-31T20:10:23.819Z,292.69
2023-01-31T20:15:30.925Z,293.56
2023-01-31T20:20:38.711Z,293.88
2023-01-31T20:25:46.447Z,293.90
2023-01-31T20:30:54.151Z,294.21
2023-01-31T20:36:01.395Z,294.00
2023-01-31T20:41:09.087Z,294.71
2023-01-31T20:46:17.361Z,295.10
2023-01-31T20:51:24.595Z,294.52
2023-01-31T20:56:32.201Z,294.23
2023-01-31T21:01:39.938Z,294.47
2023-01-31T21:06:47.531Z,295.30
2023-01-31T21:11:55.657Z,295.16
2023-01-31T21:17:02.819Z,295.33
2023-01-31T21:22:09.988Z,294.14
2023-01-31T21:27:17.191Z,293.94
2023-01-31T21:32:24.381Z,294.12
2023-01-31T21:37:31.536Z,294.68
2023-01-31T21:42:38.799Z,295.75
2023-01-31T21:47:46.012Z,296.53
2023-01-31T21:52:53.195Z,297.63
2023-01-31T21:58:00.362Z,297.72
2023-01-31T22:03:07.584Z,297.93
2023-01-31T22:08:14.736Z,297.11
2023-01-31T22:13:21.918Z,296.54
2023-01-31T22:18:29.152Z,296.83
2023-01-31T22:23:36.276Z,297.47
2023-01-31T22:28:43.484Z,297.84
2023-01-31T22:33:50.730Z,298.57
2023-01-31T22:38:57.944Z,299.65
2023-01-31T22:44:05.146Z,299.64
2023-01-31T22:49:12.421Z,300.72
2023-01-31T22:54:19.497Z,300.31
2023-01-31T22:59:26.864Z,300.08
2023-01-31T23:04:34.219Z,299.33
2023-01-31T23:09:41.376Z,301.17
2023-01-31T23:14:48.647Z,301.44
2023-01-31T23:19:55.896Z,302.65
2023-01-31T23:25:03.257Z,302.70
2023-01-31T23:30:10.513Z,303.67
2023-01-31T23:35:17.736Z,303.60
2023-01-31T23:40:24.858Z,304.20
2023-01-31T23:45:32.045Z,304.70
2023-01-31T23:50:39.262Z,304.73
2023-01-31T23:55:46.424Z,305.56
